Aviation Digital Data Service (ADDS)

Output produced by METARs form (1303 UTC 17 January 2017)
found at http://aviationweather.gov/adds/metars/
 
KBPT 171253Z 17007KT 7SM BKN003 OVC022 21/20 A3004 RMK AO2 SLP172 T02060200 $